• Join FlightAware (Why Join?)
  • Login
  • US Flag 
05:43AM EDT


 

Airport Tracker/Info


-or-


 

Live Flight TrackerFlight Track Log ✈ WBR2622 ✈ 14-Jul-2013 ✈ KSTL - KBRL

Flight Track Log - Related Links

Times and Time Zones

All times are in EDT time to prevent confusion due to time zone crossing. See the WBR2622 flight status page for this flight to view local times or setup timezone preferences in your user account.

Time Position Orientation Groundspeed Altitude Reporting Facility
EDT Latitude Longitude Course Direction KTS MPH feet Rate Location/Type
11:24AM 38.7333 -90.3333 344° North 108 124 1,500  Level Gateway (St. Louis) TRACON
11:25AM 38.7500 -90.3000 57° Northeast 115 132 2,300 720 Climbing Gateway (St. Louis) TRACON
11:26AM 38.7667 -90.2500 67° East 121 139 3,000 300 Climbing Gateway (St. Louis) TRACON
11:27AM 38.7833 -90.2167 57° Northeast 148 170 3,000  Level Gateway (St. Louis) TRACON
11:28AM 38.8000 -90.1667 67° East 150 173 3,000  Level Gateway (St. Louis) TRACON
11:29AM 38.8333 -90.1167 49° Northeast 152 175 3,100  Climbing Gateway (St. Louis) TRACON
11:30AM 39.0020 -90.4570 344° North  Level FlightAware Approximate
11:30AM 38.8500 -90.0667 67° East 154 177 3,100  Level Gateway (St. Louis) TRACON
11:31AM 38.8561 -90.0622 30° Northeast 162 186 3,100 420 Level Kansas City Center
11:32AM 38.9075 -90.0694 354° North 157 181 3,800 660 Climbing Kansas City Center
11:33AM 38.9486 -90.0756 353° North 152 175 4,500 540 Climbing Kansas City Center
11:34AM 38.9906 -90.0825 353° North 152 175 5,000 240 Climbing Kansas City Center
11:35AM 39.0389 -90.0903 353° North 161 185 5,100  Climbing Kansas City Center
11:36AM 39.0894 -90.0981 353° North 177 204 5,000  Descending Kansas City Center
11:37AM 39.1436 -90.1292 336° Northwest 177 204 5,100  Climbing Kansas City Center
11:38AM 39.1889 -90.1572 334° Northwest 180 207 5,100 -60 Level Kansas City Center
11:39AM 39.2347 -90.1817 338° Northwest 179 206 5,000 -60 Descending Kansas City Center
11:40AM 39.2808 -90.2092 335° Northwest 181 208 5,000  Level Kansas City Center
11:41AM 39.3264 -90.2361 335° Northwest 181 208 5,000  Level Kansas City Center
11:42AM 39.3731 -90.2628 336° Northwest 183 211 5,000  Level Kansas City Center
11:43AM 39.4286 -90.2953 336° Northwest 183 211 5,000  Level Kansas City Center
11:44AM 39.4756 -90.3203 338° Northwest 182 209 5,000  Level Kansas City Center
11:45AM 39.5214 -90.3511 333° Northwest 183 211 5,000 60 Level Kansas City Center
11:46AM 39.5661 -90.3794 334° Northwest 182 209 5,200 300 Climbing Kansas City Center
11:47AM 39.6094 -90.4086 333° Northwest 177 204 5,700 360 Climbing Kansas City Center
11:48AM 39.6506 -90.4333 335° Northwest 168 193 6,000 120 Climbing Kansas City Center
11:49AM 39.7050 -90.4697 333° Northwest 179 206 6,000  Level Kansas City Center
11:51AM 39.7497 -90.4947 337° Northwest 178 205 6,000  Level Kansas City Center
11:52AM 39.7944 -90.5192 337° Northwest 176 203 6,100  Climbing Kansas City Center
11:53AM 39.8386 -90.5483 333° Northwest 176 203 6,000 -60 Descending Kansas City Center
11:54AM 39.8833 -90.5750 335° Northwest 176 203 6,000  Level Kansas City Center
11:55AM 39.9275 -90.6014 335° Northwest 175 201 6,000  Level Kansas City Center
11:56AM 39.9814 -90.6344 335° Northwest 176 203 6,100  Climbing Kansas City Center
11:57AM 40.0253 -90.6614 335° Northwest 176 203 6,100  Level Kansas City Center
11:58AM 40.0697 -90.6894 334° Northwest 176 203 6,100 -60 Level Kansas City Center
11:59AM 40.1150 -90.7178 334° Northwest 178 205 6,000 -60 Descending Kansas City Center
12:00PM 40.1597 -90.7444 336° Northwest 178 205 6,000  Level Kansas City Center
12:01PM 40.2047 -90.7711 336° Northwest 177 204 6,000  Level Kansas City Center
12:02PM 40.2492 -90.7981 335° Northwest 177 204 6,000  Level Kansas City Center
12:03PM 40.3031 -90.8319 334° Northwest 178 205 6,100  Climbing Kansas City Center
12:04PM 40.3472 -90.8606 334° Northwest 177 204 6,100 -60 Level Kansas City Center
12:05PM 40.3942 -90.8872 337° Northwest 179 206 6,000 -60 Descending Kansas City Center
12:06PM 40.4381 -90.9117 337° Northwest 177 204 6,000 -240 Level Kansas City Center
12:07PM 40.4800 -90.9378 335° Northwest 170 196 5,600 -540 Descending Kansas City Center
12:08PM 40.5350 -90.9744 333° Northwest 179 206 4,900 -660 Descending Chicago Center
12:09PM 40.5789 -91.0172 323° Northwest 169 194 4,200 -660 Descending Chicago Center
12:10PM 40.6167 -91.0531 324° Northwest 167 192 3,600 -540 Descending Chicago Center
12:11PM 40.6556 -91.0844 329° Northwest 165 190 3,200 -540 Descending Chicago Center
12:12PM 40.6933 -91.1172 327° Northwest 164 189 2,600 -420 Descending Chicago Center
12:14PM 40.7475 -91.1472 337° Northwest 144 166 2,300 -180 Descending Chicago Center
12:15PM 40.7903 -91.1544 353° North 152 175 2,300  Level Chicago Center
12:17PM 40.7832 -91.1255 143° Southeast  Level Estimated
12:24PM 40.7832 -91.1255 143° Southeast  Level Estimated